Melbourne Harbour Control, Victoria

12:52 PM AEDT on February 13, 2016 (GMT +1100)
Location 3: The Age Forecourt - GWTS | | Change Station
CLOSE
Current Station
Personal Weather Station
Location: Melbourne, VICTORIA
Elevation: 92 ft
Nearby Weather Stations

Elev 92 ft 37.82 °S, 144.95 °E | Updated 14 seconds ago

Clear
Clear
76.3 °F
Feels Like 78 °F
N
4.9
Wind Variable Wind from SE
Gusts 7.4 mph

Today
High -- | Low -- °F
--% Chance of Precip.
Yesterday
High -- | Low -- °F
Precip. -- in
Pressure 29.77 in
Visibility -9999.0 miles
Clouds
Heat Index 78 °F
Dew Point 56 °F
Humidity 50%
Rainfall 0.00 in
Snow Depth Not available.
6:46 AM 8:21 PM
Waxing Crescent, 25% visible
METAR YMML 130130Z 17009KT CAVOK 27/11 Q1008 WS RWY16 FM0130 MOD TURB BLW 3000FT
Pressure 29.77 in
Visibility -9999.0 miles
Clouds
Heat Index 78 °F
Dew Point 56 °F
Humidity 50%
Rainfall 0.00 in
Snow Depth Not available.
6:46 AM 8:21 PM
Waxing Crescent, 25% visible
METAR YMML 130130Z 17009KT CAVOK 27/11 Q1008 WS RWY16 FM0130 MOD TURB BLW 3000FT

10-Day Weather Forecast

Almanac

Astronomy

Feb. 13, 2016 Rise Set
Actual Time
Civil Twilight
Nautical Twilight
Astronomical Twilight
Moon
Length of Visible Light
Length of Day
Tomorrow will be .
, % of the Moon is Illuminated

Today's Extremes

Country Highs Country Lows

Community

WunderPhotos

Upload Photos

1,892,459 photos uploaded!

WunderBlog® & News

Nearby

Air Quality

  Air Quality AQ Index Pollutant
Not available.

Snow Depth

Station Depth Elevation

Earthquake Activity

City Distance Mag. Time & Date
Minimum magnitude displayed is 2.5.

Coastal Water Temperatures

Place Temperature

Stations

Nearby Weather Stations

Station Location Temp. Windchill Dew Point Humidity Wind Precip. Elev Updated Type